Time;durP1;ratioP1;P1;durP2;ratioP2;P2;SDS_P1;SDS_P2;PMS_P1;PMS_P2;Temp;Humidity;BMP_temperature;BMP_pressure;BME280_temperature;BME280_humidity;BME280_pressure;Samples;Min_cycle;Max_cycle;Signal;HPM_P1;HPM_P2
2022/11/08 00:02:59;;;;;;;6.28;4.53;;;;;;;12.74;100.00;96470.09;5020408;28;20085;-45
2022/11/08 00:13:59;;;;;;;5.55;3.65;;;;;;;12.86;100.00;96455.59;5019671;28;20081;-49
2022/11/08 00:16:29;;;;;;;4.65;4.18;;;;;;;12.92;100.00;96454.97;5024251;28;20657;-48
2022/11/08 00:18:57;;;;;;;5.63;4.53;;;;;;;12.91;100.00;96448.00;5016453;28;20528;-48
2022/11/08 00:21:26;;;;;;;4.97;3.92;;;;;;;12.97;100.00;96449.19;5075596;28;20457;-45
2022/11/08 00:23:54;;;;;;;4.57;3.92;;;;;;;12.98;100.00;96451.69;5103483;28;20110;-51
2022/11/08 00:26:22;;;;;;;5.35;4.00;;;;;;;13.04;100.00;96443.09;5102286;28;20090;-47
2022/11/08 00:28:51;;;;;;;5.45;3.75;;;;;;;13.07;100.00;96444.59;5098879;28;20075;-47
2022/11/08 00:31:19;;;;;;;5.00;3.88;;;;;;;13.09;100.00;96442.63;5101252;28;20082;-46
2022/11/08 00:33:49;;;;;;;7.63;4.05;;;;;;;13.17;100.00;96441.81;5096283;28;20082;-48
2022/11/08 00:36:17;;;;;;;5.40;3.78;;;;;;;13.11;100.00;96445.09;5095817;28;20084;-51
2022/11/08 00:38:46;;;;;;;5.65;3.63;;;;;;;13.02;100.00;96433.66;5101185;28;20079;-45
2022/11/08 00:41:14;;;;;;;5.18;3.80;;;;;;;12.95;100.00;96433.47;5098995;28;20094;-49
2022/11/08 00:43:43;;;;;;;4.00;3.42;;;;;;;12.62;100.00;96437.78;5101545;28;20078;-46
2022/11/08 00:46:11;;;;;;;7.45;4.28;;;;;;;12.28;100.00;96440.41;5096385;28;20094;-48
2022/11/08 00:48:40;;;;;;;4.55;3.40;;;;;;;12.80;100.00;96429.75;5104807;28;20087;-46
2022/11/08 00:51:11;;;;;;;6.32;3.70;;;;;;;12.95;100.00;96428.19;5098392;28;20724;-46
2022/11/08 00:53:40;;;;;;;4.30;3.60;;;;;;;13.03;100.00;96432.66;5103244;28;20063;-51
2022/11/08 00:56:11;;;;;;;4.57;3.72;;;;;;;12.98;100.00;96425.22;5098424;28;20483;-49
2022/11/08 00:58:40;;;;;;;6.28;4.00;;;;;;;12.66;100.00;96425.88;5100159;28;20083;-44
2022/11/08 01:01:09;;;;;;;8.80;4.10;;;;;;;12.64;100.00;96421.75;5098289;28;20079;-50
2022/11/08 01:03:38;;;;;;;5.55;4.20;;;;;;;11.55;100.00;96422.97;5095715;28;20080;-45
2022/11/08 01:06:09;;;;;;;5.70;3.85;;;;;;;11.84;100.00;96419.28;5094873;28;20689;-46
2022/11/08 01:08:37;;;;;;;5.63;4.00;;;;;;;12.13;100.00;96413.72;5095831;28;20082;-47
2022/11/08 01:11:07;;;;;;;4.88;4.22;;;;;;;11.92;100.00;96422.00;5097178;28;20087;-44
2022/11/08 01:13:36;;;;;;;5.47;4.30;;;;;;;11.61;100.00;96413.63;5097992;28;20079;-50
2022/11/08 01:16:08;;;;;;;5.25;3.80;;;;;;;10.69;100.00;96415.47;5098963;28;20087;-46
2022/11/08 01:18:36;;;;;;;5.32;4.03;;;;;;;10.32;100.00;96415.47;5085175;28;20071;-46
2022/11/08 01:21:05;;;;;;;4.70;4.05;;;;;;;11.09;100.00;96397.63;5095660;28;20095;-46
2022/11/08 01:23:35;;;;;;;5.25;4.20;;;;;;;11.80;100.00;96400.25;5097185;28;20071;-44
2022/11/08 01:26:05;;;;;;;6.43;4.28;;;;;;;11.99;100.00;96396.59;5103210;28;20086;-46
2022/11/08 01:28:34;;;;;;;4.95;3.97;;;;;;;12.14;100.00;96393.38;5096202;28;20071;-43
2022/11/08 01:31:06;;;;;;;4.03;3.33;;;;;;;12.04;100.00;96396.97;5108188;28;20083;-47
2022/11/08 01:33:35;;;;;;;5.10;3.90;;;;;;;11.94;100.00;96387.47;5098628;28;20558;-45
2022/11/08 01:36:05;;;;;;;5.07;4.00;;;;;;;11.93;100.00;96381.34;5105139;28;20081;-44
2022/11/08 01:38:36;;;;;;;5.70;3.70;;;;;;;11.93;100.00;96383.19;5091297;28;20091;-47
2022/11/08 01:41:05;;;;;;;4.47;3.92;;;;;;;11.79;100.00;96374.78;5092887;28;20095;-44
2022/11/08 01:43:38;;;;;;;4.72;4.03;;;;;;;11.81;100.00;96377.28;5096206;28;20076;-46
2022/11/08 01:46:39;;;;;;;6.55;4.55;;;;;;;12.06;100.00;96384.41;5096572;28;20548;-49
2022/11/08 01:49:32;;;;;;;6.40;4.28;;;;;;;11.88;100.00;96378.38;5093503;28;20090;-48
2022/11/08 01:52:13;;;;;;;6.93;3.95;;;;;;;11.83;100.00;96380.59;5085189;28;20082;-44
2022/11/08 01:54:48;;;;;;;6.85;4.57;;;;;;;11.82;100.00;96387.69;5097282;28;20078;-44
2022/11/08 01:57:19;;;;;;;7.05;4.80;;;;;;;11.84;100.00;96382.31;5089669;28;20067;-47
2022/11/08 01:59:51;;;;;;;7.22;4.60;;;;;;;11.45;100.00;96382.59;5089760;28;20138;-49
2022/11/08 02:02:20;;;;;;;7.78;4.28;;;;;;;11.61;100.00;96372.19;5097608;28;20090;-44
2022/11/08 02:04:48;;;;;;;5.10;4.30;;;;;;;11.55;100.00;96377.25;5093663;28;20087;-51
2022/11/08 02:07:17;;;;;;;6.75;4.90;;;;;;;11.77;100.00;96363.56;5097944;28;20071;-44
2022/11/08 02:09:48;;;;;;;5.68;4.63;;;;;;;11.90;100.00;96362.34;5095958;28;20067;-46
2022/11/08 02:12:17;;;;;;;6.20;4.63;;;;;;;11.30;100.00;96360.38;5095912;28;20481;-45
2022/11/08 02:14:45;;;;;;;5.97;4.82;;;;;;;11.52;100.00;96357.25;5096255;28;20417;-43
2022/11/08 02:17:14;;;;;;;6.25;4.85;;;;;;;11.61;100.00;96348.41;5091234;28;20088;-47
2022/11/08 02:19:45;;;;;;;5.93;4.50;;;;;;;11.57;100.00;96349.72;5092382;28;20075;-49
2022/11/08 02:22:19;;;;;;;6.63;4.53;;;;;;;11.02;100.00;96354.34;5094983;28;20059;-46
2022/11/08 02:24:49;;;;;;;6.88;4.85;;;;;;;11.32;100.00;96346.06;5091503;28;20063;-45
2022/11/08 02:27:17;;;;;;;5.10;4.47;;;;;;;11.57;100.00;96341.78;5091022;28;20075;-49
2022/11/08 02:29:46;;;;;;;7.75;4.90;;;;;;;11.34;100.00;96344.06;5087069;28;20490;-45
2022/11/08 02:32:14;;;;;;;5.63;4.63;;;;;;;11.60;100.00;96345.94;5097483;28;20083;-44
2022/11/08 02:34:44;;;;;;;6.45;4.63;;;;;;;11.69;100.00;96345.00;5098995;28;20067;-48
2022/11/08 02:37:14;;;;;;;6.55;4.63;;;;;;;11.71;100.00;96345.69;5102473;28;20525;-46
2022/11/08 02:39:43;;;;;;;5.85;4.43;;;;;;;11.59;100.00;96352.19;5104328;28;20062;-43
2022/11/08 02:42:15;;;;;;;5.60;4.30;;;;;;;11.52;100.00;96346.69;5100698;28;20067;-44
2022/11/08 02:44:43;;;;;;;7.80;5.13;;;;;;;11.34;100.00;96346.72;5101672;28;20079;-43
2022/11/08 02:47:12;;;;;;;7.22;5.20;;;;;;;11.25;100.00;96345.00;5097117;28;20059;-44
2022/11/08 02:49:40;;;;;;;7.72;5.03;;;;;;;11.29;100.00;96349.00;5097580;28;20079;-45
2022/11/08 02:52:09;;;;;;;8.90;5.68;;;;;;;10.85;100.00;96343.63;5099965;28;20068;-53
2022/11/08 02:54:37;;;;;;;8.45;4.82;;;;;;;11.07;100.00;96330.97;5097244;28;20558;-45
2022/11/08 02:57:06;;;;;;;6.88;4.90;;;;;;;10.95;100.00;96332.19;5099902;28;20083;-44
2022/11/08 02:59:35;;;;;;;6.70;4.75;;;;;;;10.67;100.00;96333.03;5098044;28;20083;-49
2022/11/08 03:02:04;;;;;;;5.75;4.38;;;;;;;11.09;100.00;96331.66;5103414;28;20519;-47
2022/11/08 03:04:32;;;;;;;5.63;4.18;;;;;;;11.20;100.00;96325.31;5103533;28;20071;-43
2022/11/08 03:07:01;;;;;;;7.10;4.90;;;;;;;11.20;100.00;96322.66;5098303;28;20564;-45
2022/11/08 03:09:29;;;;;;;5.72;4.25;;;;;;;11.24;100.00;96322.19;5104200;28;20083;-44
2022/11/08 03:11:57;;;;;;;5.80;4.40;;;;;;;10.74;100.00;96321.91;5100896;28;20069;-44
2022/11/08 03:14:26;;;;;;;6.72;4.80;;;;;;;10.87;100.00;96322.34;5093979;28;20086;-52
2022/11/08 03:16:56;;;;;;;6.45;4.65;;;;;;;11.20;100.00;96320.03;5098603;28;20084;-46
2022/11/08 03:19:24;;;;;;;5.25;3.95;;;;;;;11.08;100.00;96319.41;5098952;28;20171;-47
2022/11/08 03:21:52;;;;;;;5.60;3.92;;;;;;;11.12;100.00;96315.50;5103740;28;20997;-49
2022/11/08 03:24:21;;;;;;;6.40;4.10;;;;;;;11.15;100.00;96313.41;5104717;28;20074;-46
2022/11/08 03:26:49;;;;;;;6.80;4.70;;;;;;;10.73;100.00;96320.22;5096562;28;20099;-45
2022/11/08 03:29:18;;;;;;;5.82;4.82;;;;;;;10.83;100.00;96316.53;5098763;28;20471;-46
2022/11/08 03:31:46;;;;;;;6.80;4.90;;;;;;;11.16;100.00;96314.22;5102237;28;20564;-47
2022/11/08 03:34:16;;;;;;;7.22;4.43;;;;;;;10.90;100.00;96319.41;5100500;28;20075;-43
2022/11/08 03:36:44;;;;;;;7.17;4.57;;;;;;;10.22;100.00;96318.00;5102452;28;20071;-45
2022/11/08 03:39:12;;;;;;;6.38;4.50;;;;;;;10.34;100.00;96310.75;5079836;28;20516;-46
2022/11/08 03:41:41;;;;;;;7.15;4.68;;;;;;;10.67;100.00;96322.50;5099155;28;20056;-46
2022/11/08 03:44:09;;;;;;;7.13;4.53;;;;;;;9.45;100.00;96329.56;5102111;28;20121;-50
2022/11/08 03:46:38;;;;;;;5.70;4.53;;;;;;;9.67;100.00;96328.44;5103261;28;20078;-45
2022/11/08 03:49:06;;;;;;;6.30;4.60;;;;;;;10.27;100.00;96317.56;5097650;28;20076;-48
2022/11/08 03:51:36;;;;;;;6.88;4.70;;;;;;;10.31;100.00;96324.22;5096133;28;20071;-46
2022/11/08 03:54:04;;;;;;;7.22;4.80;;;;;;;9.92;100.00;96323.53;5098846;28;20087;-49
2022/11/08 03:56:33;;;;;;;6.75;4.75;;;;;;;10.13;100.00;96324.13;5098927;28;20083;-45
2022/11/08 03:59:01;;;;;;;6.82;4.57;;;;;;;10.31;100.00;96316.31;5096322;28;20091;-45
2022/11/08 04:01:29;;;;;;;6.70;4.43;;;;;;;10.42;100.00;96317.91;5093638;28;20083;-48
2022/11/08 04:03:58;;;;;;;6.22;4.25;;;;;;;10.21;100.00;96315.47;5097920;28;20071;-43
2022/11/08 04:06:26;;;;;;;4.88;4.10;;;;;;;10.15;100.00;96308.16;5105158;28;20055;-52
2022/11/08 04:08:56;;;;;;;4.20;3.78;;;;;;;9.38;100.00;96312.69;5101653;28;20682;-47
2022/11/08 04:16:56;;;;;;;5.53;4.20;;;;;;;8.83;100.00;96298.47;5097080;28;20516;-49
2022/11/08 04:22:11;;;;;;;6.00;4.13;;;;;;;9.65;100.00;96287.44;5100601;28;20070;-44
2022/11/08 04:24:40;;;;;;;4.47;4.07;;;;;;;10.13;100.00;96286.41;5099530;28;20118;-48
2022/11/08 04:27:09;;;;;;;6.27;4.37;;;;;;;9.79;100.00;96283.50;5105315;28;20076;-48
2022/11/08 04:29:37;;;;;;;6.65;4.55;;;;;;;10.21;100.00;96281.22;5100375;28;20512;-43
2022/11/08 04:32:06;;;;;;;6.78;4.50;;;;;;;10.29;100.00;96278.75;5094989;28;20451;-48
2022/11/08 04:34:34;;;;;;;4.80;4.30;;;;;;;9.29;100.00;96279.34;5100509;28;20542;-46
2022/11/08 04:37:03;;;;;;;5.35;4.53;;;;;;;8.89;100.00;96282.13;5095766;28;20093;-50
2022/11/08 04:39:31;;;;;;;7.95;4.82;;;;;;;8.86;100.00;96280.59;5100741;28;20118;-44
2022/11/08 04:42:01;;;;;;;6.47;4.30;;;;;;;9.86;100.00;96285.41;5096796;28;20770;-46
2022/11/08 04:44:29;;;;;;;4.18;3.75;;;;;;;9.57;100.00;96280.25;5096834;28;20072;-44
2022/11/08 04:46:58;;;;;;;4.78;4.07;;;;;;;9.85;100.00;96280.28;5097690;28;20071;-43
2022/11/08 04:49:26;;;;;;;6.65;4.13;;;;;;;9.91;100.00;96280.56;5097971;28;20098;-44
2022/11/08 04:51:54;;;;;;;5.25;4.00;;;;;;;10.09;100.00;96272.69;5097029;28;20105;-45
2022/11/08 04:54:23;;;;;;;4.47;4.07;;;;;;;9.85;100.00;96269.75;5098760;28;20064;-49
2022/11/08 04:56:51;;;;;;;6.00;4.35;;;;;;;8.80;100.00;96286.41;5095587;28;20079;-44
2022/11/08 04:59:21;;;;;;;6.60;4.38;;;;;;;9.80;100.00;96267.53;5098765;28;20098;-45
2022/11/08 05:01:49;;;;;;;5.97;4.60;;;;;;;9.48;100.00;96270.56;5100051;28;21947;-45
2022/11/08 05:04:18;;;;;;;6.30;4.20;;;;;;;9.39;100.00;96271.41;5101948;28;20971;-48
2022/11/08 05:06:46;;;;;;;5.05;4.45;;;;;;;8.55;100.00;96270.22;5097984;28;20078;-52
2022/11/08 05:09:15;;;;;;;5.28;4.60;;;;;;;8.49;100.00;96262.03;5094894;28;20078;-48
2022/11/08 05:11:43;;;;;;;12.65;5.18;;;;;;;8.54;100.00;96257.22;5100695;28;20082;-43
2022/11/08 05:14:12;;;;;;;4.80;4.30;;;;;;;9.53;100.00;96257.78;5096912;28;20102;-46
2022/11/08 05:16:41;;;;;;;5.85;4.38;;;;;;;9.67;100.00;96254.72;5100148;28;20071;-43
2022/11/08 05:19:10;;;;;;;8.40;4.97;;;;;;;9.59;100.00;96257.22;5096316;28;20083;-44
2022/11/08 05:24:22;;;;;;;11.13;4.95;;;;;;;9.36;100.00;96255.91;5053992;28;20071;-48
2022/11/08 05:26:51;;;;;;;7.72;4.97;;;;;;;9.78;100.00;96248.44;5095211;28;20070;-50
2022/11/08 05:29:19;;;;;;;7.30;5.32;;;;;;;9.93;100.00;96251.41;5103460;28;20438;-46
2022/11/08 05:31:49;;;;;;;6.53;4.82;;;;;;;9.34;100.00;96256.06;5098209;28;20090;-50
2022/11/08 05:34:17;;;;;;;6.05;4.47;;;;;;;9.48;100.00;96252.97;5102574;28;20071;-46
2022/11/08 05:36:46;;;;;;;4.85;4.40;;;;;;;9.44;100.00;96256.88;5095746;28;20082;-44
2022/11/08 05:39:14;;;;;;;14.93;5.28;;;;;;;9.34;100.00;96249.97;5099014;28;20083;-45
2022/11/08 05:41:42;;;;;;;5.45;4.38;;;;;;;8.75;100.00;96254.47;5099604;28;20074;-48
2022/11/08 05:44:11;;;;;;;4.78;4.30;;;;;;;9.30;100.00;96251.22;5076193;28;20059;-47
2022/11/08 05:46:39;;;;;;;9.88;4.57;;;;;;;8.75;100.00;96259.72;5096088;28;20080;-46
2022/11/08 05:49:09;;;;;;;6.28;4.70;;;;;;;8.73;100.00;96259.00;5098277;28;20086;-42
2022/11/08 05:51:37;;;;;;;4.90;4.40;;;;;;;9.20;100.00;96256.50;5102055;28;20082;-47
2022/11/08 05:54:06;;;;;;;8.85;4.93;;;;;;;9.07;100.00;96256.78;5102258;28;20079;-50
2022/11/08 05:56:35;;;;;;;5.90;5.10;;;;;;;9.45;100.00;96257.69;5097404;28;20079;-46
2022/11/08 05:59:04;;;;;;;19.58;11.35;;;;;;;9.54;100.00;96251.56;5097240;28;20102;-48
2022/11/08 06:01:32;;;;;;;7.20;6.00;;;;;;;9.31;100.00;96253.69;5101823;28;20079;-43
2022/11/08 06:04:01;;;;;;;8.85;6.05;;;;;;;8.74;100.00;96258.03;5094936;28;20091;-49
2022/11/08 06:06:30;;;;;;;8.75;5.30;;;;;;;9.48;100.00;96244.25;5095991;28;20088;-49
2022/11/08 06:08:58;;;;;;;5.37;4.87;;;;;;;9.47;100.00;96245.22;5099603;28;20086;-49
2022/11/08 06:11:27;;;;;;;31.95;28.63;;;;;;;9.55;100.00;96244.50;5097328;28;20563;-45
2022/11/08 06:13:56;;;;;;;8.88;7.82;;;;;;;9.24;100.00;96253.44;5096664;28;20068;-46
2022/11/08 06:16:25;;;;;;;11.88;8.35;;;;;;;8.99;100.00;96259.28;5099077;28;20079;-49
2022/11/08 06:18:53;;;;;;;8.73;7.22;;;;;;;9.39;100.00;96253.81;5097382;28;20533;-48
2022/11/08 06:21:22;;;;;;;7.22;5.82;;;;;;;9.50;100.00;96252.84;5095918;28;20063;-46
2022/11/08 06:23:54;;;;;;;6.32;5.07;;;;;;;9.70;100.00;96259.69;5098886;28;20075;-48
2022/11/08 06:26:22;;;;;;;5.82;4.88;;;;;;;9.40;100.00;96262.56;5097506;28;20585;-46
2022/11/08 06:28:51;;;;;;;8.43;4.95;;;;;;;9.43;100.00;96262.28;5098457;28;20079;-49
2022/11/08 06:31:20;;;;;;;5.70;5.03;;;;;;;9.36;100.00;96266.41;5100602;28;20149;-44
2022/11/08 06:33:49;;;;;;;5.53;5.00;;;;;;;9.28;100.00;96267.13;5099291;28;20079;-44
2022/11/08 06:36:17;;;;;;;6.03;5.15;;;;;;;9.52;100.00;96266.66;5098404;28;20083;-44
2022/11/08 06:38:46;;;;;;;9.70;5.78;;;;;;;9.36;100.00;96277.81;5093523;28;20048;-49
2022/11/08 06:41:18;;;;;;;7.53;6.25;;;;;;;10.02;100.00;96273.44;5094654;28;20098;-48
2022/11/08 06:43:47;;;;;;;6.78;5.57;;;;;;;9.66;100.00;96275.91;5094303;28;20090;-46
2022/11/08 06:46:16;;;;;;;7.78;6.50;;;;;;;9.64;100.00;96273.44;5091944;28;20472;-50
2022/11/08 06:48:44;;;;;;;10.68;6.38;;;;;;;9.33;100.00;96278.09;5094138;28;20079;-50
2022/11/08 06:51:13;;;;;;;11.10;6.18;;;;;;;9.98;100.00;96262.38;5095189;28;20197;-45
2022/11/08 06:53:41;;;;;;;9.80;5.43;;;;;;;9.78;100.00;96269.50;5093111;28;20433;-47
2022/11/08 06:56:10;;;;;;;11.27;7.70;;;;;;;10.15;100.00;96266.00;5082241;28;20426;-45
2022/11/08 06:58:41;;;;;;;6.78;5.18;;;;;;;10.48;100.00;96269.88;5095029;28;20075;-48
2022/11/08 07:01:10;;;;;;;5.18;4.60;;;;;;;10.63;100.00;96268.41;5094229;28;20087;-48
2022/11/08 07:03:39;;;;;;;6.10;5.40;;;;;;;10.73;100.00;96270.94;5101501;28;20059;-46
2022/11/08 07:06:08;;;;;;;10.27;5.45;;;;;;;10.63;100.00;96271.03;5097674;28;20133;-49
2022/11/08 07:08:36;;;;;;;7.75;5.43;;;;;;;10.98;100.00;96268.53;5099532;28;20043;-44
2022/11/08 07:11:05;;;;;;;6.40;4.55;;;;;;;10.98;100.00;96279.94;5094950;28;20080;-44
2022/11/08 07:13:34;;;;;;;6.78;5.10;;;;;;;11.15;100.00;96275.63;5098783;28;20083;-45
2022/11/08 07:16:04;;;;;;;8.23;5.65;;;;;;;10.95;100.00;96277.59;5099461;28;20079;-52
2022/11/08 07:18:32;;;;;;;6.47;5.15;;;;;;;11.38;100.00;96279.41;5100152;28;20415;-47
2022/11/08 07:21:01;;;;;;;7.25;4.90;;;;;;;11.69;100.00;96278.13;5094690;28;20072;-43
2022/11/08 07:23:31;;;;;;;8.50;5.28;;;;;;;11.83;100.00;96267.81;5101753;28;20078;-47
2022/11/08 07:26:03;;;;;;;6.55;5.40;;;;;;;12.05;100.00;96279.69;5097639;28;20530;-50
2022/11/08 07:28:31;;;;;;;8.48;5.13;;;;;;;12.02;100.00;96274.72;5102057;28;20075;-43
2022/11/08 07:31:02;;;;;;;5.13;4.60;;;;;;;11.06;100.00;96269.44;5104704;28;20466;-46
2022/11/08 07:33:32;;;;;;;7.28;5.43;;;;;;;11.06;100.00;96276.53;5101481;28;20416;-46
2022/11/08 07:36:01;;;;;;;7.07;5.75;;;;;;;10.51;100.00;96280.13;5102301;28;20076;-47
2022/11/08 07:38:31;;;;;;;7.65;5.65;;;;;;;11.38;100.00;96271.50;5083685;28;20350;-43
2022/11/08 07:41:00;;;;;;;7.25;5.63;;;;;;;11.79;100.00;96270.94;5099893;28;20087;-47
2022/11/08 07:43:29;;;;;;;7.30;5.57;;;;;;;11.75;100.00;96267.78;5099560;28;20394;-44
2022/11/08 07:45:59;;;;;;;7.43;5.80;;;;;;;12.05;100.00;96273.59;5096350;28;20138;-45
2022/11/08 07:48:29;;;;;;;7.97;6.18;;;;;;;12.07;100.00;96271.59;5097325;28;20075;-45
2022/11/08 07:50:59;;;;;;;20.07;11.37;;;;;;;11.61;100.00;96249.88;5099376;28;20074;-51
2022/11/08 07:53:28;;;;;;;38.25;17.85;;;;;;;11.98;100.00;96262.81;5099143;28;20138;-51
2022/11/08 07:55:57;;;;;;;14.70;7.82;;;;;;;12.08;100.00;96258.25;5097925;28;20072;-49
2022/11/08 07:58:25;;;;;;;8.65;6.97;;;;;;;12.41;100.00;96266.28;5099581;28;20079;-48
2022/11/08 08:00:54;;;;;;;9.13;5.93;;;;;;;12.54;100.00;96260.53;5101345;28;20067;-50
2022/11/08 08:03:22;;;;;;;8.10;6.00;;;;;;;12.92;100.00;96259.09;5099969;28;20106;-51
2022/11/08 08:05:53;;;;;;;8.95;5.68;;;;;;;13.16;100.00;96258.28;5101825;28;20077;-52
2022/11/08 08:08:30;;;;;;;7.10;5.50;;;;;;;12.59;100.00;96247.63;5102212;28;20770;-48
2022/11/08 08:11:00;;;;;;;8.10;5.68;;;;;;;13.56;100.00;96240.75;5103263;28;20071;-52
2022/11/08 08:13:29;;;;;;;7.20;5.53;;;;;;;13.55;100.00;96239.06;5101271;28;20152;-52
2022/11/08 08:15:59;;;;;;;6.57;5.60;;;;;;;12.45;100.00;96233.22;5093860;28;20068;-50
2022/11/08 08:18:28;;;;;;;6.47;4.75;;;;;;;12.68;100.00;96243.19;5100283;28;20812;-48
2022/11/08 08:20:56;;;;;;;179.95;79.82;;;;;;;13.51;100.00;96235.13;5097431;28;20489;-50
2022/11/08 08:23:25;;;;;;;8.52;6.40;;;;;;;13.83;100.00;96236.03;5096456;28;20459;-49
2022/11/08 08:25:55;;;;;;;5.63;4.85;;;;;;;14.27;100.00;96232.88;5100885;28;20298;-46
2022/11/08 08:28:23;;;;;;;8.10;4.88;;;;;;;13.53;100.00;96233.97;5096872;28;20079;-46
2022/11/08 08:30:51;;;;;;;8.35;5.00;;;;;;;14.04;100.00;96235.44;5099328;28;20729;-45
2022/11/08 08:33:20;;;;;;;6.15;4.60;;;;;;;14.52;100.00;96229.16;5083880;28;20063;-47
2022/11/08 08:35:56;;;;;;;6.75;4.50;;;;;;;14.99;100.00;96230.81;5099293;28;20071;-49
2022/11/08 08:38:25;;;;;;;6.80;4.50;;;;;;;14.91;100.00;96231.69;5075454;28;20074;-48
2022/11/08 08:40:54;;;;;;;6.82;4.47;;;;;;;14.95;100.00;96238.31;5096982;28;20102;-53
2022/11/08 08:43:23;;;;;;;5.70;4.03;;;;;;;14.77;100.00;96234.31;5099220;28;20074;-47
2022/11/08 08:45:51;;;;;;;8.18;4.45;;;;;;;14.63;100.00;96234.06;5099508;28;20068;-48
2022/11/08 08:48:20;;;;;;;6.32;4.45;;;;;;;14.43;100.00;96232.81;5092954;28;21620;-46
2022/11/08 08:50:48;;;;;;;7.50;4.75;;;;;;;14.60;100.00;96244.19;5098658;28;20090;-43
2022/11/08 08:53:16;;;;;;;8.75;5.63;;;;;;;15.60;100.00;96226.28;5098220;28;20083;-44
2022/11/08 08:55:46;;;;;;;8.48;5.53;;;;;;;15.51;100.00;96237.19;5103139;28;20067;-43
2022/11/08 08:58:17;;;;;;;16.83;7.20;;;;;;;16.06;100.00;96227.97;5100151;28;20326;-45
2022/11/08 09:00:45;;;;;;;10.85;5.95;;;;;;;16.11;100.00;96226.44;5101197;28;20080;-46
2022/11/08 09:03:33;;;;;;;7.13;4.93;;;;;;;15.54;100.00;96240.28;5100882;28;20087;-44
2022/11/08 09:06:02;;;;;;;6.75;4.60;;;;;;;15.25;100.00;96238.41;5091605;28;20075;-46
2022/11/08 09:08:30;;;;;;;8.85;4.60;;;;;;;16.77;99.28;96225.59;5095676;28;20083;-43
2022/11/08 09:11:00;;;;;;;5.63;4.20;;;;;;;16.17;94.45;96224.84;5091457;28;20471;-47
2022/11/08 09:13:30;;;;;;;5.85;3.85;;;;;;;15.63;100.00;96233.91;5094120;28;20084;-51
2022/11/08 09:16:00;;;;;;;8.30;3.78;;;;;;;17.45;86.48;96220.66;5096941;28;20098;-47
2022/11/08 09:18:28;;;;;;;5.28;3.55;;;;;;;16.94;91.25;96231.50;5093425;28;20533;-44
2022/11/08 09:20:57;;;;;;;6.85;3.95;;;;;;;17.11;91.85;96226.75;5096637;28;20087;-48
2022/11/08 09:23:26;;;;;;;4.43;3.13;;;;;;;15.85;100.00;96226.88;5095908;28;20083;-44
2022/11/08 09:25:58;;;;;;;4.22;3.22;;;;;;;15.14;100.00;96233.50;5099954;28;20479;-46
2022/11/08 09:28:26;;;;;;;4.70;3.10;;;;;;;16.13;100.00;96229.72;5093383;28;20111;-46
2022/11/08 09:31:04;;;;;;;3.55;3.25;;;;;;;17.30;89.99;96224.22;5092539;28;20082;-41
2022/11/08 09:33:33;;;;;;;3.58;3.03;;;;;;;16.63;96.38;96229.91;5094918;28;20102;-42
2022/11/08 09:36:02;;;;;;;5.18;3.10;;;;;;;16.59;92.37;96220.66;5096725;28;20102;-44
2022/11/08 09:38:30;;;;;;;3.72;2.88;;;;;;;16.83;87.36;96228.31;5096693;28;20121;-47
2022/11/08 09:41:11;;;;;;;4.22;2.88;;;;;;;16.66;94.89;96237.53;5097816;28;20073;-44
2022/11/08 09:43:43;;;;;;;;;;;;;;;16.92;89.81;96229.00;5098567;28;20083;-44
2022/11/08 09:46:16;;;;;;;3.95;2.90;;;;;;;16.76;88.39;96227.44;5096736;28;19931;-48
2022/11/08 09:48:45;;;;;;;4.00;2.80;;;;;;;16.85;90.47;96239.59;5097982;28;20075;-44
2022/11/08 09:51:16;;;;;;;3.83;2.78;;;;;;;16.62;88.57;96230.94;5094906;28;20449;-47
2022/11/08 09:53:48;;;;;;;3.80;3.00;;;;;;;17.20;90.89;96222.91;5091564;28;20107;-42
2022/11/08 09:56:23;;;;;;;3.35;2.90;;;;;;;17.66;82.70;96217.13;5100961;28;20067;-47
2022/11/08 09:58:54;;;;;;;3.65;2.70;;;;;;;16.17;100.00;96232.00;5096047;28;20083;-43
2022/11/08 10:01:23;;;;;;;3.88;2.80;;;;;;;16.73;93.21;96225.09;5090005;28;20094;-43
2022/11/08 10:03:56;;;;;;;4.78;3.00;;;;;;;17.04;85.09;96230.16;5094534;28;20513;-42
2022/11/08 10:06:49;;;;;;;2.70;2.45;;;;;;;17.35;84.62;96233.50;5095492;28;20064;-44
2022/11/08 10:09:28;;;;;;;3.80;2.85;;;;;;;17.74;77.40;96219.63;5094160;28;20086;-51
2022/11/08 10:12:05;;;;;;;3.72;2.90;;;;;;;17.51;83.47;96219.88;5076922;28;20067;-45
2022/11/08 10:14:39;;;;;;;4.18;2.72;;;;;;;18.08;75.39;96210.00;5096122;28;20587;-46
2022/11/08 10:17:36;;;;;;;5.63;2.88;;;;;;;18.53;72.98;96218.41;5095639;28;20076;-44
2022/11/08 10:20:18;;;;;;;6.80;5.03;;;;;;;18.54;75.31;96214.72;5096055;28;20082;-49
2022/11/08 10:22:52;;;;;;;7.32;5.10;;;;;;;18.85;69.48;96211.53;5094368;28;20075;-44
2022/11/08 10:25:24;;;;;;;4.82;2.50;;;;;;;19.25;63.57;96214.28;5100508;28;20075;-44
2022/11/08 10:27:54;;;;;;;5.22;2.47;;;;;;;19.94;64.05;96197.78;5097686;28;20074;-48
2022/11/08 10:30:24;;;;;;;4.90;2.30;;;;;;;19.71;62.37;96200.06;5095497;28;20086;-45
2022/11/08 10:32:55;;;;;;;3.22;2.20;;;;;;;19.94;63.27;96202.31;5100457;28;20059;-43
2022/11/08 10:35:27;;;;;;;4.20;2.22;;;;;;;20.05;63.11;96198.97;5094221;28;20090;-47
2022/11/08 10:37:58;;;;;;;4.18;2.50;;;;;;;19.71;65.73;96200.91;5096791;28;20059;-48
2022/11/08 10:40:31;;;;;;;;;;;;;;;20.17;68.91;96189.28;5074772;28;20075;-47
2022/11/08 10:43:02;;;;;;;2.80;2.00;;;;;;;20.76;63.62;96190.06;5099946;28;19963;-50
2022/11/08 10:45:36;;;;;;;3.97;2.20;;;;;;;20.42;62.70;96186.69;5095449;28;20086;-44
2022/11/08 10:48:06;;;;;;;2.72;2.00;;;;;;;20.51;60.01;96192.63;5095963;28;20075;-48
2022/11/08 10:50:42;;;;;;;5.65;2.05;;;;;;;20.15;60.73;96181.44;5098918;28;20544;-48
2022/11/08 10:53:16;;;;;;;4.97;2.40;;;;;;;20.76;55.87;96176.66;5093709;28;20453;-44
2022/11/08 10:55:50;;;;;;;3.35;2.10;;;;;;;20.48;60.94;96180.50;5101412;28;20071;-47
2022/11/08 10:58:36;;;;;;;3.60;2.63;;;;;;;20.81;56.42;96171.47;5097140;28;20090;-53
2022/11/08 11:01:07;;;;;;;3.53;2.10;;;;;;;21.03;56.46;96166.59;5098965;28;20228;-46
2022/11/08 11:03:36;;;;;;;5.55;2.13;;;;;;;20.92;56.60;96165.44;5100199;28;20082;-44
2022/11/08 11:06:06;;;;;;;3.33;2.07;;;;;;;21.21;56.61;96174.69;5098385;28;20094;-48
2022/11/08 11:08:35;;;;;;;3.38;2.30;;;;;;;20.48;57.30;96177.81;5097766;28;20653;-44
2022/11/08 11:11:23;;;;;;;2.78;2.00;;;;;;;20.57;56.98;96167.69;5098695;28;20083;-48
2022/11/08 11:14:06;;;;;;;4.20;2.20;;;;;;;20.69;56.43;96167.84;5104896;28;20084;-44
2022/11/08 11:16:36;;;;;;;6.60;2.55;;;;;;;21.06;54.87;96166.97;5100110;28;20587;-42
2022/11/08 11:19:06;;;;;;;19.50;10.35;;;;;;;21.16;54.74;96161.09;5098683;28;20090;-46
2022/11/08 11:21:35;;;;;;;;;;;;;;;20.08;58.61;96169.09;5099322;28;20084;-44
2022/11/08 11:24:08;;;;;;;3.55;2.28;;;;;;;21.37;53.43;96173.34;5096700;28;20354;-48
2022/11/08 11:26:40;;;;;;;5.00;2.30;;;;;;;21.77;50.87;96170.28;5097120;28;20083;-42
2022/11/08 11:29:18;;;;;;;5.47;2.65;;;;;;;21.91;50.41;96168.28;5100585;28;20091;-48
2022/11/08 11:31:49;;;;;;;3.47;2.35;;;;;;;21.09;54.08;96163.00;5103115;28;20090;-50
2022/11/08 11:34:41;;;;;;;4.03;2.30;;;;;;;20.08;58.13;96169.94;5099311;28;20526;-51
2022/11/08 11:37:19;;;;;;;4.03;2.38;;;;;;;21.52;53.95;96154.22;5104331;28;20086;-48
2022/11/08 11:39:54;;;;;;;3.30;2.20;;;;;;;21.39;55.07;96148.97;5100736;28;20541;-43
2022/11/08 11:42:26;;;;;;;3.40;2.22;;;;;;;20.99;58.29;96155.47;5095568;28;20087;-46
2022/11/08 11:45:19;;;;;;;3.67;2.40;;;;;;;21.49;53.88;96141.25;5096382;28;20091;-44
2022/11/08 11:47:52;;;;;;;5.03;2.40;;;;;;;20.14;59.83;96145.00;5098903;28;20084;-49
2022/11/08 11:50:29;;;;;;;3.45;2.55;;;;;;;21.06;55.91;96145.53;5103037;28;20622;-45
2022/11/08 11:52:59;;;;;;;3.67;2.58;;;;;;;20.93;57.19;96145.63;5100817;28;20075;-44
2022/11/08 11:55:49;;;;;;;5.85;2.78;;;;;;;20.42;61.90;96148.38;5103500;28;20168;-43
2022/11/08 11:58:29;;;;;;;4.30;2.33;;;;;;;20.63;59.85;96148.06;5099953;28;20141;-49
2022/11/08 12:01:01;;;;;;;2.95;2.10;;;;;;;21.15;58.02;96158.66;5099928;28;20087;-50
2022/11/08 12:03:49;;;;;;;5.57;2.50;;;;;;;20.99;57.28;96155.47;5101160;28;20797;-49
2022/11/08 12:06:29;;;;;;;7.10;2.30;;;;;;;21.56;54.35;96150.06;5095097;28;20118;-43